createdAt,value
2024-04-16T00:00:44.703Z,15.07
2024-04-16T00:03:11.562Z,14.95
2024-04-16T00:05:38.183Z,14.34
2024-04-16T00:08:04.765Z,14.77
2024-04-16T00:10:31.387Z,14.89
2024-04-16T00:12:58.119Z,15.05
2024-04-16T00:15:24.730Z,14.80
2024-04-16T00:17:51.537Z,14.80
2024-04-16T00:20:18.232Z,14.85
2024-04-16T00:22:44.972Z,14.77
2024-04-16T00:25:11.663Z,14.92
2024-04-16T00:27:38.611Z,15.03
2024-04-16T00:30:05.208Z,15.39
2024-04-16T00:32:31.966Z,15.17
2024-04-16T00:34:58.593Z,15.35
2024-04-16T00:37:25.325Z,15.23
2024-04-16T00:39:51.884Z,15.10
2024-04-16T00:42:18.627Z,15.15
2024-04-16T00:44:45.228Z,15.10
2024-04-16T00:47:11.885Z,14.94
2024-04-16T00:49:38.520Z,14.95
2024-04-16T00:52:05.130Z,15.25
2024-04-16T00:54:31.717Z,15.21
2024-04-16T00:56:58.295Z,15.05
2024-04-16T00:59:24.958Z,15.16
2024-04-16T01:01:51.643Z,15.54
2024-04-16T01:04:18.346Z,14.82
2024-04-16T01:06:44.984Z,14.77
2024-04-16T01:09:11.649Z,15.19
2024-04-16T01:11:38.289Z,15.16
2024-04-16T01:14:04.948Z,14.90
2024-04-16T01:16:31.752Z,15.07
2024-04-16T01:18:58.575Z,15.04
2024-04-16T01:21:25.202Z,14.98
2024-04-16T01:23:51.853Z,14.99
2024-04-16T01:26:18.428Z,15.33
2024-04-16T01:28:45.082Z,15.21
2024-04-16T01:31:11.700Z,14.34
2024-04-16T01:33:38.281Z,14.58
2024-04-16T01:36:04.860Z,14.89
2024-04-16T01:38:31.414Z,14.62
2024-04-16T01:40:57.991Z,14.30
2024-04-16T01:43:24.549Z,14.07
2024-04-16T01:45:51.111Z,14.07
2024-04-16T01:48:17.708Z,14.15
2024-04-16T01:50:44.247Z,14.03
2024-04-16T01:53:11.292Z,14.25
2024-04-16T01:55:37.917Z,14.21
2024-04-16T01:58:04.583Z,14.28
2024-04-16T02:00:31.167Z,14.26
2024-04-16T02:02:57.793Z,14.09
2024-04-16T02:05:24.396Z,13.74
2024-04-16T02:07:51.099Z,13.72
2024-04-16T02:10:17.788Z,13.93
2024-04-16T02:12:44.419Z,13.74
2024-04-16T02:15:10.976Z,14.12
2024-04-16T02:17:37.715Z,14.17
2024-04-16T02:20:04.304Z,14.53
2024-04-16T02:22:30.947Z,14.60
2024-04-16T02:24:57.600Z,14.56
2024-04-16T02:27:24.185Z,14.25
2024-04-16T02:29:50.748Z,13.97
2024-04-16T02:32:17.318Z,13.39
2024-04-16T02:34:43.864Z,12.26
2024-04-16T02:37:10.491Z,12.05
2024-04-16T02:39:37.077Z,11.55
2024-04-16T02:42:03.699Z,11.83
2024-04-16T02:44:30.235Z,12.01
2024-04-16T02:46:56.787Z,12.13
2024-04-16T02:49:23.424Z,11.72
2024-04-16T02:51:50.019Z,11.87
2024-04-16T02:54:16.554Z,12.08
2024-04-16T02:56:43.115Z,12.29
2024-04-16T02:59:09.818Z,12.11
2024-04-16T03:01:36.384Z,12.56
2024-04-16T03:04:02.979Z,12.55
2024-04-16T03:06:29.587Z,12.59
2024-04-16T03:08:56.148Z,12.76
2024-04-16T03:11:22.834Z,12.68
2024-04-16T03:13:49.814Z,12.81
2024-04-16T03:16:16.425Z,12.91
2024-04-16T03:18:43.082Z,12.61
2024-04-16T03:21:09.655Z,12.29
2024-04-16T03:23:36.212Z,12.26
2024-04-16T03:26:02.858Z,11.85
2024-04-16T03:28:29.573Z,11.90
2024-04-16T03:30:56.169Z,12.01
2024-04-16T03:33:22.703Z,11.71
2024-04-16T03:35:49.332Z,11.91
2024-04-16T03:38:15.969Z,11.75
2024-04-16T03:40:42.560Z,12.01
2024-04-16T03:43:12.092Z,12.65
2024-04-16T03:45:38.669Z,12.74
2024-04-16T03:48:05.323Z,12.60
2024-04-16T03:50:31.965Z,12.40
2024-04-16T03:52:58.586Z,12.13
2024-04-16T03:55:25.149Z,11.97
2024-04-16T03:57:51.764Z,11.71
2024-04-16T04:00:18.312Z,11.77
2024-04-16T04:02:45.014Z,11.84
2024-04-16T04:05:11.762Z,11.96
2024-04-16T04:07:38.449Z,11.64
2024-04-16T04:10:05.028Z,11.59
2024-04-16T04:12:34.683Z,11.53
2024-04-16T04:15:03.527Z,11.48
2024-04-16T04:17:30.333Z,11.56
2024-04-16T04:19:56.931Z,11.20
2024-04-16T04:22:23.518Z,11.60
2024-04-16T04:24:50.123Z,11.76
2024-04-16T04:27:16.942Z,11.67
2024-04-16T04:29:43.526Z,11.44
2024-04-16T04:32:10.286Z,11.65
2024-04-16T04:34:36.970Z,11.66
2024-04-16T04:37:03.575Z,11.61
2024-04-16T04:39:30.126Z,11.80
2024-04-16T04:41:56.796Z,11.94
2024-04-16T04:44:23.345Z,11.77
2024-04-16T04:46:49.931Z,11.57
2024-04-16T04:49:16.763Z,11.48
2024-04-16T04:51:43.376Z,11.50
2024-04-16T04:54:09.940Z,11.57
2024-04-16T04:56:36.503Z,11.42
2024-04-16T04:59:03.066Z,11.29
2024-04-16T05:01:29.744Z,11.64
2024-04-16T05:03:56.621Z,11.26
2024-04-16T05:06:23.377Z,11.36
2024-04-16T05:08:50.128Z,11.63
2024-04-16T05:11:16.755Z,11.48
2024-04-16T05:13:43.400Z,11.78
2024-04-16T05:16:10.220Z,11.59
2024-04-16T05:18:37.019Z,11.53
2024-04-16T05:21:03.675Z,11.55
2024-04-16T05:23:30.221Z,11.64
2024-04-16T05:25:56.903Z,12.11
2024-04-16T05:28:23.743Z,11.82
2024-04-16T05:30:50.412Z,11.98
2024-04-16T05:33:17.050Z,11.87
2024-04-16T05:35:43.610Z,12.03
2024-04-16T05:38:10.179Z,11.74
2024-04-16T05:40:36.800Z,11.71
2024-04-16T05:43:03.579Z,11.82
2024-04-16T05:45:30.170Z,12.65
2024-04-16T05:47:56.937Z,12.31
2024-04-16T05:50:23.536Z,12.89
2024-04-16T05:52:50.089Z,12.58
2024-04-16T05:55:16.722Z,12.77
2024-04-16T05:57:43.510Z,12.88
2024-04-16T06:00:10.116Z,12.38
2024-04-16T06:02:36.663Z,12.18
2024-04-16T06:05:03.288Z,12.09
2024-04-16T06:07:29.929Z,12.37
2024-04-16T06:09:56.473Z,12.56
2024-04-16T06:12:23.025Z,12.25
2024-04-16T06:14:49.873Z,12.31
2024-04-16T06:17:16.516Z,12.16
2024-04-16T06:19:43.179Z,12.27
2024-04-16T06:22:09.842Z,12.46
2024-04-16T06:24:36.443Z,12.44
2024-04-16T06:27:03.034Z,12.84
2024-04-16T06:29:29.609Z,12.78
2024-04-16T06:31:56.384Z,12.84
2024-04-16T06:34:23.201Z,12.75
2024-04-16T06:36:49.906Z,12.43
2024-04-16T06:39:16.459Z,11.89
2024-04-16T06:41:43.071Z,12.10
2024-04-16T06:44:09.668Z,12.29
2024-04-16T06:46:36.307Z,12.39
2024-04-16T06:49:09.334Z,12.38
2024-04-16T06:51:43.663Z,11.84
2024-04-16T06:54:10.254Z,11.42
2024-04-16T06:56:36.815Z,11.61
2024-04-16T06:59:03.385Z,12.31
2024-04-16T07:01:30.053Z,12.09
2024-04-16T07:03:56.699Z,12.46
2024-04-16T07:06:23.359Z,11.78
2024-04-16T07:08:50.328Z,11.75
2024-04-16T07:11:16.975Z,12.17
2024-04-16T07:13:43.717Z,12.36
2024-04-16T07:16:10.498Z,12.64
2024-04-16T07:18:37.172Z,12.49
2024-04-16T07:21:03.798Z,12.90
2024-04-16T07:23:30.380Z,12.66
2024-04-16T07:25:56.898Z,13.21
2024-04-16T07:28:23.501Z,13.57
2024-04-16T07:30:54.794Z,13.20
2024-04-16T07:33:28.794Z,12.57
2024-04-16T07:35:55.514Z,12.13
2024-04-16T07:38:22.130Z,11.88
2024-04-16T07:40:48.705Z,11.92
2024-04-16T07:43:18.116Z,12.04
2024-04-16T07:45:45.090Z,12.28
2024-04-16T07:48:11.634Z,12.44
2024-04-16T07:50:38.252Z,12.31
2024-04-16T07:53:04.871Z,12.80
2024-04-16T07:55:31.633Z,12.84
2024-04-16T07:57:58.357Z,12.65
2024-04-16T08:00:24.904Z,12.82
2024-04-16T08:02:51.490Z,12.66
2024-04-16T08:05:18.075Z,13.01
2024-04-16T08:07:44.755Z,13.46
2024-04-16T08:10:11.357Z,12.37
2024-04-16T08:12:37.964Z,12.45
2024-04-16T08:15:04.517Z,12.48
2024-04-16T08:17:31.158Z,12.82
2024-04-16T08:19:57.846Z,13.28
2024-04-16T08:22:24.615Z,13.65
2024-04-16T08:24:51.212Z,13.94
2024-04-16T08:27:17.795Z,13.60
2024-04-16T08:29:44.328Z,13.49
2024-04-16T08:32:10.924Z,12.92
2024-04-16T08:34:37.642Z,13.35
2024-04-16T08:37:04.553Z,13.70
2024-04-16T08:39:31.222Z,13.99
2024-04-16T08:41:57.849Z,13.66
2024-04-16T08:44:24.457Z,13.91
2024-04-16T08:46:51.132Z,14.11
2024-04-16T08:49:17.853Z,14.55
2024-04-16T08:51:44.426Z,14.88
2024-04-16T08:54:11.023Z,14.31
2024-04-16T08:56:37.645Z,14.70
2024-04-16T08:59:04.236Z,14.49
2024-04-16T09:01:30.904Z,14.82
2024-04-16T09:03:57.537Z,15.19
2024-04-16T09:06:24.140Z,14.54
2024-04-16T09:09:01.228Z,14.87
2024-04-16T09:11:35.545Z,15.46
2024-04-16T09:14:02.181Z,15.24
2024-04-16T09:16:28.990Z,14.36
2024-04-16T09:18:55.584Z,13.61
2024-04-16T09:21:22.149Z,14.06
2024-04-16T09:23:48.703Z,14.15
2024-04-16T09:26:15.218Z,14.58
2024-04-16T09:28:41.845Z,13.53
2024-04-16T09:31:08.519Z,13.94
2024-04-16T09:33:38.597Z,14.99
2024-04-16T09:36:05.869Z,15.08
2024-04-16T09:38:32.827Z,14.77
2024-04-16T09:40:59.379Z,14.97
2024-04-16T09:43:25.920Z,14.65
2024-04-16T09:45:52.529Z,14.83
2024-04-16T09:48:19.410Z,14.81
2024-04-16T09:50:54.069Z,14.88
2024-04-16T09:53:22.817Z,14.74
2024-04-16T09:55:49.434Z,15.01
2024-04-16T09:58:16.040Z,15.56
2024-04-16T10:00:42.641Z,14.80
2024-04-16T10:03:09.264Z,15.43
2024-04-16T10:05:35.844Z,15.99
2024-04-16T10:08:02.385Z,15.42
2024-04-16T10:10:28.950Z,15.35
2024-04-16T10:12:55.514Z,15.10
2024-04-16T10:15:22.107Z,14.58
2024-04-16T10:17:48.748Z,14.27
2024-04-16T10:20:15.588Z,14.81
2024-04-16T10:22:48.527Z,14.88
2024-04-16T10:25:16.897Z,14.66
2024-04-16T10:27:43.542Z,14.99
2024-04-16T10:30:10.208Z,14.63
2024-04-16T10:32:37.118Z,15.31
2024-04-16T10:35:03.679Z,15.88
2024-04-16T10:37:30.320Z,16.09
2024-04-16T10:39:57.134Z,16.23
2024-04-16T10:42:23.684Z,15.44
2024-04-16T10:44:50.283Z,15.18
2024-04-16T10:47:17.087Z,15.31
2024-04-16T10:49:44.912Z,15.95
2024-04-16T10:52:11.622Z,15.96
2024-04-16T10:54:38.339Z,16.12
2024-04-16T10:57:04.981Z,16.25
2024-04-16T10:59:31.591Z,15.99
2024-04-16T11:01:58.170Z,15.58
2024-04-16T11:04:24.918Z,15.04
2024-04-16T11:06:53.840Z,15.08
2024-04-16T11:09:20.669Z,15.85
2024-04-16T11:11:47.542Z,15.82
2024-04-16T11:14:14.144Z,15.46
2024-04-16T11:16:40.837Z,15.44
2024-04-16T11:19:07.497Z,16.19
2024-04-16T11:21:34.065Z,15.87
2024-04-16T11:24:00.646Z,14.45
2024-04-16T11:26:27.323Z,15.28
2024-04-16T11:28:54.064Z,16.05
2024-04-16T11:31:20.679Z,15.78
2024-04-16T11:33:48.215Z,15.29
2024-04-16T11:36:15.235Z,15.43
2024-04-16T11:38:42.017Z,15.95
2024-04-16T11:41:12.582Z,15.93
2024-04-16T11:43:40.638Z,15.50
2024-04-16T11:46:07.218Z,15.54
2024-04-16T11:48:33.928Z,16.05
2024-04-16T11:51:00.465Z,16.61
2024-04-16T11:53:27.146Z,15.83
2024-04-16T11:55:53.844Z,16.22
2024-04-16T11:58:20.438Z,16.37
2024-04-16T12:00:47.182Z,15.83
2024-04-16T12:03:13.796Z,15.86
2024-04-16T12:05:40.401Z,16.36
2024-04-16T12:08:09.634Z,16.31
2024-04-16T12:10:37.999Z,15.61
2024-04-16T12:13:04.578Z,15.64
2024-04-16T12:15:31.157Z,15.18
2024-04-16T12:17:57.743Z,14.32
2024-04-16T12:20:24.287Z,14.64
2024-04-16T12:22:50.866Z,14.28
2024-04-16T12:25:17.463Z,14.78
2024-04-16T12:27:44.004Z,15.40
2024-04-16T12:30:10.542Z,15.12
2024-04-16T12:32:37.187Z,15.67
2024-04-16T12:35:03.794Z,16.37
2024-04-16T12:37:30.365Z,16.46
2024-04-16T12:39:56.931Z,15.68
2024-04-16T12:42:23.471Z,14.99
2024-04-16T12:44:50.024Z,15.81
2024-04-16T12:47:16.853Z,15.53
2024-04-16T12:49:43.567Z,15.41
2024-04-16T12:52:10.164Z,14.96
2024-04-16T12:54:36.752Z,15.36
2024-04-16T12:57:03.312Z,14.57
2024-04-16T12:59:29.965Z,13.57
2024-04-16T13:01:56.677Z,13.76
2024-04-16T13:04:23.415Z,14.36
2024-04-16T13:06:49.981Z,13.85
2024-04-16T13:09:16.559Z,13.71
2024-04-16T13:11:43.109Z,14.18
2024-04-16T13:14:11.254Z,14.49
2024-04-16T13:16:39.022Z,14.68
2024-04-16T13:19:05.719Z,15.05
2024-04-16T13:21:32.342Z,15.93
2024-04-16T13:23:58.921Z,15.53
2024-04-16T13:26:25.526Z,15.69
2024-04-16T13:28:52.106Z,15.87
2024-04-16T13:31:18.744Z,16.45
2024-04-16T13:33:45.329Z,16.50
2024-04-16T13:36:11.873Z,16.38
2024-04-16T13:38:38.514Z,16.39
2024-04-16T13:41:05.131Z,16.99
2024-04-16T13:43:31.873Z,17.03
2024-04-16T13:45:58.459Z,16.89
2024-04-16T13:48:25.270Z,16.07
2024-04-16T13:50:56.380Z,15.75
2024-04-16T13:53:25.093Z,15.93
2024-04-16T13:55:51.862Z,15.79
2024-04-16T13:58:18.672Z,15.58
2024-04-16T14:00:45.477Z,15.60
2024-04-16T14:03:13.736Z,15.74
2024-04-16T14:05:41.645Z,15.74
2024-04-16T14:08:08.207Z,15.90
2024-04-16T14:10:34.753Z,15.60
2024-04-16T14:13:01.297Z,15.51
2024-04-16T14:15:29.813Z,15.69
2024-04-16T14:17:56.368Z,16.34
2024-04-16T14:20:22.922Z,16.87
2024-04-16T14:22:49.538Z,17.03
2024-04-16T14:25:16.377Z,17.07
2024-04-16T14:27:42.971Z,16.83
2024-04-16T14:30:09.527Z,16.92
2024-04-16T14:32:36.102Z,16.47
2024-04-16T14:35:02.693Z,16.42
2024-04-16T14:37:29.234Z,16.98
2024-04-16T14:39:55.829Z,17.53
2024-04-16T14:42:22.542Z,17.44
2024-04-16T14:44:49.216Z,17.20
2024-04-16T14:47:16.037Z,16.97
2024-04-16T14:49:42.671Z,16.58
2024-04-16T14:52:09.466Z,15.56
2024-04-16T14:54:36.169Z,15.95
2024-04-16T14:57:02.950Z,15.94
2024-04-16T14:59:29.501Z,16.24
2024-04-16T15:01:56.200Z,15.76
2024-04-16T15:04:22.872Z,14.96
2024-04-16T15:06:49.434Z,15.37
2024-04-16T15:09:18.499Z,14.94
2024-04-16T15:11:46.305Z,14.92
2024-04-16T15:14:12.902Z,15.48
2024-04-16T15:16:39.652Z,15.79
2024-04-16T15:19:06.302Z,15.52
2024-04-16T15:21:32.933Z,15.51
2024-04-16T15:23:59.555Z,15.86
2024-04-16T15:26:26.416Z,16.31
2024-04-16T15:28:53.092Z,16.27
2024-04-16T15:31:19.720Z,16.98
2024-04-16T15:33:46.263Z,16.66
2024-04-16T15:36:12.857Z,16.74
2024-04-16T15:38:39.473Z,17.73
2024-04-16T15:41:06.087Z,18.22
2024-04-16T15:43:32.915Z,17.36
2024-04-16T15:45:59.736Z,16.65
2024-04-16T15:48:26.490Z,16.50
2024-04-16T15:50:53.137Z,16.36
2024-04-16T15:53:19.737Z,16.09
2024-04-16T15:55:46.921Z,16.35
2024-04-16T15:58:14.791Z,16.07
2024-04-16T16:00:41.366Z,15.60
2024-04-16T16:03:08.023Z,15.20
2024-04-16T16:05:34.671Z,13.92
2024-04-16T16:08:01.233Z,12.70
2024-04-16T16:10:27.943Z,12.80
2024-04-16T16:12:55.861Z,12.89
2024-04-16T16:15:23.685Z,13.14
2024-04-16T16:17:50.314Z,13.32
2024-04-16T16:20:17.069Z,13.73
2024-04-16T16:22:43.755Z,13.97
2024-04-16T16:25:10.403Z,14.55
2024-04-16T16:27:37.484Z,14.99
2024-04-16T16:30:04.085Z,15.05
2024-04-16T16:32:30.762Z,15.43
2024-04-16T16:34:57.399Z,15.27
2024-04-16T16:37:24.067Z,15.16
2024-04-16T16:39:50.690Z,14.90
2024-04-16T16:42:17.272Z,15.26
2024-04-16T16:44:43.935Z,15.27
2024-04-16T16:47:10.694Z,15.15
2024-04-16T16:49:37.494Z,14.59
2024-04-16T16:52:04.171Z,13.70
2024-04-16T16:54:30.917Z,13.75
2024-04-16T16:56:57.639Z,14.68
2024-04-16T16:59:25.313Z,14.82
2024-04-16T17:01:52.230Z,14.95
2024-04-16T17:04:19.018Z,14.35
2024-04-16T17:06:45.734Z,14.58
2024-04-16T17:09:12.341Z,13.78
2024-04-16T17:11:38.912Z,14.23
2024-04-16T17:14:05.500Z,14.19
2024-04-16T17:16:32.081Z,14.77
2024-04-16T17:18:58.667Z,14.29
2024-04-16T17:21:25.331Z,14.41
2024-04-16T17:23:51.889Z,14.15
2024-04-16T17:26:19.858Z,13.76
2024-04-16T17:28:46.540Z,13.90
2024-04-16T17:31:13.131Z,14.20
2024-04-16T17:33:39.753Z,14.20
2024-04-16T17:36:06.443Z,13.72
2024-04-16T17:38:32.993Z,13.61
2024-04-16T17:40:59.727Z,13.86
2024-04-16T17:43:26.334Z,13.71
2024-04-16T17:45:52.964Z,13.42
2024-04-16T17:50:46.453Z,13.36
2024-04-16T17:53:13.212Z,13.42
2024-04-16T17:55:39.795Z,13.28
2024-04-16T17:58:06.369Z,13.18
2024-04-16T18:00:33.017Z,13.26
2024-04-16T18:02:59.604Z,13.07
2024-04-16T18:05:26.259Z,12.97
2024-04-16T18:07:52.864Z,12.48
2024-04-16T18:10:19.647Z,12.42
2024-04-16T18:12:46.471Z,12.37
2024-04-16T18:15:13.184Z,12.44
2024-04-16T18:17:39.795Z,12.56
2024-04-16T18:20:06.547Z,12.62
2024-04-16T18:22:33.200Z,12.69
2024-04-16T18:24:59.792Z,12.56
2024-04-16T18:27:26.501Z,12.72
2024-04-16T18:29:53.201Z,12.57
2024-04-16T18:32:19.847Z,12.75
2024-04-16T18:34:46.657Z,12.11
2024-04-16T18:37:16.059Z,12.17
2024-04-16T18:39:42.909Z,12.67
2024-04-16T18:42:09.628Z,12.99
2024-04-16T18:44:36.252Z,13.18
2024-04-16T18:47:02.903Z,13.11
2024-04-16T18:49:29.607Z,12.75
2024-04-16T18:51:56.411Z,12.58
2024-04-16T18:54:23.122Z,12.56
2024-04-16T18:56:49.748Z,13.11
2024-04-16T18:59:16.421Z,13.40
2024-04-16T19:01:43.180Z,13.44
2024-04-16T19:04:09.806Z,13.14
2024-04-16T19:06:36.638Z,13.07
2024-04-16T19:09:03.238Z,12.74
2024-04-16T19:11:29.795Z,13.08
2024-04-16T19:13:56.517Z,13.02
2024-04-16T19:16:23.222Z,12.72
2024-04-16T19:18:49.887Z,12.43
2024-04-16T19:21:16.697Z,12.58
2024-04-16T19:23:43.274Z,12.71
2024-04-16T19:26:10.124Z,12.66
2024-04-16T19:28:36.786Z,12.45
2024-04-16T19:31:03.481Z,12.43
2024-04-16T19:33:30.081Z,12.43
2024-04-16T19:35:56.640Z,12.30
2024-04-16T19:38:23.401Z,12.43
2024-04-16T19:40:50.148Z,12.43
2024-04-16T19:43:17.087Z,12.18
2024-04-16T19:45:43.723Z,12.29
2024-04-16T19:48:10.410Z,12.31
2024-04-16T19:50:37.215Z,12.28
2024-04-16T19:53:03.914Z,12.30
2024-04-16T19:55:30.622Z,12.17
2024-04-16T19:57:57.323Z,12.08
2024-04-16T20:00:23.897Z,12.49
2024-04-16T20:02:53.074Z,12.31
2024-04-16T20:05:20.747Z,12.64
2024-04-16T20:07:47.443Z,12.43
2024-04-16T20:10:14.224Z,12.57
2024-04-16T20:12:40.849Z,12.72
2024-04-16T20:15:07.486Z,12.59
2024-04-16T20:20:00.778Z,12.59
2024-04-16T20:22:27.549Z,12.39
2024-04-16T20:24:54.183Z,12.80
2024-04-16T20:27:20.917Z,12.85
2024-04-16T20:29:47.495Z,12.51
2024-04-16T20:32:14.398Z,12.35
2024-04-16T20:34:47.748Z,11.54
2024-04-16T20:37:21.985Z,11.13
2024-04-16T20:39:48.735Z,10.83
2024-04-16T20:42:16.711Z,10.77
2024-04-16T20:44:43.324Z,10.56
2024-04-16T20:47:10.171Z,10.93
2024-04-16T20:49:36.961Z,11.15
2024-04-16T20:52:03.798Z,11.35
2024-04-16T20:54:30.386Z,11.46
2024-04-16T20:56:57.034Z,11.55
2024-04-16T20:59:23.761Z,11.31
2024-04-16T21:01:50.499Z,11.14
2024-04-16T21:04:17.306Z,10.94
2024-04-16T21:06:44.035Z,10.81
2024-04-16T21:09:10.805Z,10.78
2024-04-16T21:11:37.542Z,10.60
2024-04-16T21:14:04.108Z,10.50
2024-04-16T21:16:30.784Z,10.68
2024-04-16T21:18:57.413Z,10.47
2024-04-16T21:21:24.030Z,10.52
2024-04-16T21:23:50.634Z,10.38
2024-04-16T21:26:17.358Z,10.30
2024-04-16T21:28:43.960Z,10.32
2024-04-16T21:31:10.679Z,10.23
2024-04-16T21:33:37.374Z,10.29
2024-04-16T21:36:04.038Z,10.07
2024-04-16T21:38:30.806Z,10.26
2024-04-16T21:40:57.474Z,10.39
2024-04-16T21:43:24.433Z,10.24
2024-04-16T21:45:51.090Z,10.13
2024-04-16T21:48:17.660Z,9.98
2024-04-16T21:50:44.494Z,9.86
2024-04-16T21:53:11.228Z,9.86
2024-04-16T21:55:37.996Z,9.92
2024-04-16T21:58:04.660Z,10.04
2024-04-16T22:00:31.403Z,9.96
2024-04-16T22:02:58.171Z,9.76
2024-04-16T22:05:24.947Z,9.94
2024-04-16T22:07:51.742Z,10.12
2024-04-16T22:10:18.461Z,9.98
2024-04-16T22:12:45.074Z,9.96
2024-04-16T22:15:11.685Z,9.88
2024-04-16T22:17:38.374Z,9.83
2024-04-16T22:20:05.414Z,10.04
2024-04-16T22:22:32.095Z,10.26
2024-04-16T22:24:58.773Z,10.31
2024-04-16T22:27:25.584Z,10.52
2024-04-16T22:29:52.214Z,10.75
2024-04-16T22:32:18.928Z,10.28
2024-04-16T22:34:45.553Z,10.37
2024-04-16T22:37:12.164Z,10.12
2024-04-16T22:39:38.873Z,10.32
2024-04-16T22:42:05.542Z,10.10
2024-04-16T22:44:32.185Z,10.24
2024-04-16T22:46:58.864Z,10.37
2024-04-16T22:49:25.736Z,10.43
2024-04-16T22:51:52.437Z,10.42
2024-04-16T22:54:19.069Z,10.14
2024-04-16T22:56:45.779Z,10.17
2024-04-16T22:59:12.478Z,10.04
2024-04-16T23:01:39.203Z,9.94
2024-04-16T23:04:05.974Z,10.03
2024-04-16T23:06:32.566Z,9.95
2024-04-16T23:08:59.243Z,9.99
2024-04-16T23:11:26.038Z,10.20
2024-04-16T23:13:52.702Z,9.96
2024-04-16T23:16:19.512Z,9.96
2024-04-16T23:18:46.262Z,10.44
2024-04-16T23:21:13.077Z,10.73
2024-04-16T23:23:39.774Z,10.20
2024-04-16T23:26:06.363Z,10.29
2024-04-16T23:28:33.128Z,10.22
2024-04-16T23:30:59.789Z,10.32
2024-04-16T23:33:26.460Z,10.31
2024-04-16T23:35:53.257Z,10.20
2024-04-16T23:38:19.854Z,10.12
2024-04-16T23:40:46.491Z,10.34
2024-04-16T23:43:13.250Z,10.11
2024-04-16T23:45:39.885Z,10.68
2024-04-16T23:48:06.668Z,10.62
2024-04-16T23:50:33.378Z,11.09
2024-04-16T23:53:00.355Z,11.15
2024-04-16T23:55:27.099Z,11.13
2024-04-16T23:57:53.762Z,10.77
